Time;durP1;ratioP1;P1;durP2;ratioP2;P2;SDS_P1;SDS_P2;PMS_P1;PMS_P2;Temp;Humidity;BMP_temperature;BMP_pressure;BME280_temperature;BME280_humidity;BME280_pressure;Samples;Min_cycle;Max_cycle;Signal;HPM_P1;HPM_P2
2022/09/24 00:01:19;;;;;;;;;12.67;8.67;;;;;19.13;49.50;100774.59;5072243;28;45065;-71
2022/09/24 00:03:53;;;;;;;;;10.00;9.33;;;;;19.14;49.45;100782.72;5070290;28;45232;-74
2022/09/24 00:06:19;;;;;;;;;24.50;24.50;;;;;19.14;50.03;100780.00;5072361;28;45207;-69
2022/09/24 00:08:50;;;;;;;;;17.00;13.00;;;;;18.89;50.16;100754.03;5072933;28;45865;-72
2022/09/24 00:11:19;;;;;;;;;10.67;10.67;;;;;18.94;50.55;100782.88;5083977;28;45125;-74
2022/09/24 00:13:45;;;;;;;;;14.33;11.33;;;;;18.94;50.71;100787.38;5071164;28;45103;-73
2022/09/24 00:16:12;;;;;;;;;11.33;10.33;;;;;18.87;50.48;100772.09;5073300;28;44854;-73
2022/09/24 00:18:38;;;;;;;;;7.33;7.00;;;;;18.97;50.47;100781.94;5068647;28;45580;-72
2022/09/24 00:21:18;;;;;;;;;10.00;8.67;;;;;18.87;50.62;100754.03;5068771;28;45294;-71
2022/09/24 00:23:47;;;;;;;;;10.67;9.00;;;;;18.92;50.63;100764.84;5063626;28;45037;-73
2022/09/24 00:28:57;;;;;;;;;10.33;9.00;;;;;18.93;50.20;100759.41;5066831;28;45899;-70
2022/09/24 00:31:23;;;;;;;;;10.33;8.67;;;;;19.00;50.31;100773.81;5066422;28;45437;-73
2022/09/24 00:33:51;;;;;;;;;9.00;7.33;;;;;18.99;50.60;100776.53;5069321;28;44989;-68
2022/09/24 00:36:18;;;;;;;;;11.33;9.33;;;;;19.00;50.47;100767.50;5071735;28;45505;-67
2022/09/24 00:38:46;;;;;;;;;9.33;8.33;;;;;18.95;50.30;100764.81;5072161;28;45715;-73
2022/09/24 00:41:12;;;;;;;;;12.67;9.67;;;;;18.79;50.60;100729.72;5068850;28;45853;-72
2022/09/24 00:43:37;;;;;;;;;10.00;9.33;;;;;19.00;50.59;100768.38;5070257;28;45272;-66
2022/09/24 00:46:22;;;;;;;;;8.33;7.33;;;;;18.99;50.48;100771.09;5070829;28;44965;-71
2022/09/24 00:48:50;;;;;;;;;11.33;9.33;;;;;18.89;50.54;100759.44;5069891;28;46287;-67
2022/09/24 00:51:19;;;;;;;;;12.00;9.33;;;;;18.91;50.85;100771.19;5069872;28;45150;-67
2022/09/24 00:53:49;;;;;;;;;15.00;11.00;;;;;18.84;51.03;100767.63;5069411;28;45154;-69
2022/09/24 00:56:17;;;;;;;;;10.33;10.33;;;;;18.67;51.14;100747.84;5070156;28;45185;-68
2022/09/24 00:58:47;;;;;;;;;12.00;9.67;;;;;18.72;51.34;100760.44;5069777;28;45616;-72
2022/09/24 01:01:13;;;;;;;;;9.33;8.00;;;;;18.56;51.28;100724.47;5067129;28;45235;-72
2022/09/24 01:03:41;;;;;;;;;9.00;9.00;;;;;18.76;51.46;100764.94;5068913;28;44898;-67
2022/09/24 01:06:10;;;;;;;;;13.00;9.33;;;;;18.75;51.18;100757.72;5068878;28;45463;-71
2022/09/24 01:08:36;;;;;;;;;9.00;8.00;;;;;18.76;51.26;100758.63;5068936;28;45119;-67
2022/09/24 01:11:14;;;;;;;;;11.67;10.00;;;;;18.72;51.88;100762.25;5066397;28;45221;-69
2022/09/24 01:13:59;;;;;;;;;10.33;8.33;;;;;18.70;52.45;100758.66;5068498;28;45277;-70
2022/09/24 01:16:46;;;;;;;;;13.00;7.67;;;;;18.72;52.29;100756.84;5064099;28;45320;-71
2022/09/24 01:19:53;;;;;;;;;6.33;6.33;;;;;18.74;53.09;100757.72;5066580;28;45582;-73
2022/09/24 01:22:39;;;;;;;;;12.00;7.33;;;;;18.73;53.48;100758.66;5054531;28;45177;-70
2022/09/24 01:25:23;;;;;;;;;9.33;7.00;;;;;18.74;54.32;100757.72;5067666;28;45541;-67
2022/09/24 01:28:25;;;;;;;;;7.33;6.67;;;;;18.74;54.14;100757.72;5067941;28;45393;-71
2022/09/24 01:30:58;;;;;;;;;9.33;9.33;;;;;18.73;54.14;100754.13;5066731;28;45777;-68
2022/09/24 01:33:26;;;;;;;;;14.33;9.00;;;;;18.74;54.41;100752.31;5067749;28;46101;-73
2022/09/24 01:35:58;;;;;;;;;12.33;10.33;;;;;18.75;54.86;100743.28;5070521;28;45091;-72
2022/09/24 01:38:31;;;;;;;;;8.67;8.67;;;;;18.75;54.70;100746.88;5068300;28;45312;-70
2022/09/24 01:40:59;;;;;;;;;14.33;11.33;;;;;18.74;55.48;100742.41;5064903;28;45569;-68
2022/09/24 01:43:26;;;;;;;;;10.00;9.00;;;;;18.71;55.55;100733.38;5069286;28;45127;-69
2022/09/24 01:45:55;;;;;;;;;11.67;10.00;;;;;18.61;55.34;100746.09;5068284;28;45173;-72
2022/09/24 01:48:22;;;;;;;;;9.67;9.33;;;;;18.23;56.24;100694.03;5062890;28;45593;-72
2022/09/24 01:51:05;;;;;;;;;10.67;9.67;;;;;18.38;55.72;100732.72;5051638;28;45583;-71
2022/09/24 01:53:55;;;;;;;;;10.00;7.67;;;;;18.26;56.59;100735.47;5048490;28;45638;-70
2022/09/24 01:56:33;;;;;;;;;7.67;7.67;;;;;18.10;56.83;100732.88;5056603;28;45731;-72
2022/09/24 01:59:08;;;;;;;;;9.00;8.00;;;;;17.97;58.23;100733.84;5069088;28;44964;-73
2022/09/24 02:01:50;;;;;;;;;6.33;6.00;;;;;17.77;57.71;100710.44;5046052;28;46129;-73
2022/09/24 02:04:19;;;;;;;;;8.67;6.33;;;;;17.79;57.43;100724.84;5063717;28;45394;-71
2022/09/24 02:07:00;;;;;;;;;6.00;6.00;;;;;17.80;58.54;100728.44;5065660;28;45405;-70
2022/09/24 02:09:29;;;;;;;;;8.00;7.33;;;;;17.83;58.60;100721.22;5060992;28;45609;-72
2022/09/24 02:12:00;;;;;;;;;9.67;7.67;;;;;17.89;58.65;100714.06;5053806;28;45947;-67
2022/09/24 02:14:30;;;;;;;;;11.00;8.00;;;;;17.67;58.67;100681.69;5059649;28;45595;-67
2022/09/24 02:16:58;;;;;;;;;10.00;8.33;;;;;17.81;58.31;100693.31;5052476;28;46768;-72
2022/09/24 02:19:27;;;;;;;;;17.33;11.33;;;;;17.84;59.39;100701.41;5058918;28;45323;-66
2022/09/24 02:21:53;;;;;;;;;13.33;8.00;;;;;17.93;59.31;100707.72;5065558;28;47067;-71
2022/09/24 02:24:23;;;;;;;;;17.67;10.33;;;;;17.99;58.95;100707.69;5066404;28;45366;-72
2022/09/24 02:26:49;;;;;;;;;9.33;9.00;;;;;17.92;59.69;100681.56;5065469;28;44932;-71
2022/09/24 02:29:17;;;;;;;;;14.33;9.67;;;;;18.01;59.43;100686.94;5052278;28;45580;-68
2022/09/24 02:31:47;;;;;;;;;8.00;8.00;;;;;18.05;59.12;100700.44;5050647;28;46089;-73
2022/09/24 02:34:22;;;;;;;;;11.67;9.33;;;;;18.02;59.60;100696.88;5058750;28;45401;-68
2022/09/24 02:36:58;;;;;;;;;10.67;8.00;;;;;17.99;59.29;100695.06;5055652;28;45447;-69
2022/09/24 02:39:24;;;;;;;;;12.33;9.67;;;;;18.02;59.17;100700.47;5066282;28;45337;-67
2022/09/24 02:41:51;;;;;;;;;11.33;9.67;;;;;17.98;59.68;100676.13;5060220;28;45885;-73
2022/09/24 02:44:17;;;;;;;;;10.00;7.67;;;;;17.99;59.62;100686.94;5061512;28;45404;-66
2022/09/24 02:46:44;;;;;;;;;12.00;10.00;;;;;17.83;59.97;100666.28;5068051;28;45412;-71
2022/09/24 02:49:10;;;;;;;;;9.67;9.67;;;;;17.92;59.92;100678.88;5068731;28;45183;-73
2022/09/24 02:51:36;;;;;;;;;11.00;10.00;;;;;17.90;59.88;100688.78;5060519;28;45476;-69
2022/09/24 02:54:02;;;;;;;;;7.33;6.67;;;;;17.81;59.92;100689.72;5060131;28;45512;-70
2022/09/24 02:56:28;;;;;;;;;6.00;6.00;;;;;17.82;60.74;100683.41;5058243;28;45812;-72
2022/09/24 02:58:53;;;;;;;;;10.00;10.00;;;;;17.73;60.42;100673.53;5056327;28;45507;-66
2022/09/24 03:01:19;;;;;;;;;12.33;9.67;;;;;17.56;61.13;100643.00;5057984;28;46040;-73
2022/09/24 03:03:45;;;;;;;;;11.50;9.50;;;;;17.84;60.59;100682.47;5059898;28;45464;-69
2022/09/24 03:06:12;;;;;;;;;16.33;11.33;;;;;17.77;60.72;100680.72;5057582;28;59352;-72
2022/09/24 03:08:38;;;;;;;;;14.00;10.00;;;;;17.77;60.83;100680.72;5058696;28;45736;-68
2022/09/24 03:11:03;;;;;;;;;16.00;10.67;;;;;17.80;61.16;100677.09;5063388;28;45790;-72
2022/09/24 03:13:29;;;;;;;;;15.67;11.00;;;;;17.82;60.95;100673.50;5055692;28;45357;-70
2022/09/24 03:15:54;;;;;;;;;11.67;9.00;;;;;17.77;60.75;100671.69;5054667;28;45411;-70
2022/09/24 03:18:19;;;;;;;;;9.67;9.33;;;;;17.82;61.14;100673.50;5059966;28;45413;-72
2022/09/24 03:20:54;;;;;;;;;11.50;9.00;;;;;17.81;60.36;100663.56;5055067;28;46024;-67
2022/09/24 03:23:19;;;;;;;;;11.00;8.00;;;;;17.77;61.25;100669.00;5054179;28;45425;-71
2022/09/24 03:25:44;;;;;;;;;12.33;11.00;;;;;17.74;61.17;100671.75;5053413;28;53377;-68
2022/09/24 03:28:10;;;;;;;;;13.67;13.00;;;;;17.72;61.17;100669.03;5052365;28;56894;-69
2022/09/24 03:33:19;;;;;;;;;10.33;8.67;;;;;17.66;60.10;100663.66;5057931;28;45314;-70
2022/09/24 03:35:44;;;;;;;;;10.67;10.00;;;;;17.61;59.87;100666.38;5055283;28;45532;-68
2022/09/24 03:38:09;;;;;;;;;11.33;11.33;;;;;17.62;60.31;100656.44;5052953;28;45373;-73
2022/09/24 03:40:35;;;;;;;;;11.00;8.33;;;;;17.59;59.11;100662.78;5053827;28;65522;-69
2022/09/24 03:43:00;;;;;;;;;8.00;5.67;;;;;17.57;59.25;100659.19;5052790;28;45663;-66
2022/09/24 03:45:25;;;;;;;;;9.33;7.33;;;;;17.60;59.65;100656.47;5052275;28;63162;-67
2022/09/24 03:47:51;;;;;;;;;9.33;8.00;;;;;17.44;59.03;100623.22;5064758;28;45874;-71
2022/09/24 03:50:16;;;;;;;;;11.33;8.33;;;;;17.68;58.74;100653.72;5064693;28;55446;-71
2022/09/24 03:52:42;;;;;;;;;8.67;7.67;;;;;17.69;58.78;100658.25;5058579;28;45434;-67
2022/09/24 03:55:07;;;;;;;;;8.67;8.33;;;;;17.65;57.99;100651.97;5056087;28;58999;-69
2022/09/24 03:57:33;;;;;;;;;11.33;9.33;;;;;17.63;58.62;100656.44;5076438;28;45557;-72
2022/09/24 03:59:58;;;;;;;;;4.67;4.67;;;;;17.61;58.57;100660.06;5051406;28;45667;-72
2022/09/24 04:02:24;;;;;;;;;11.33;8.33;;;;;17.61;58.58;100651.97;5055619;28;45438;-68
2022/09/24 04:04:50;;;;;;;;;10.33;8.67;;;;;17.53;59.19;100649.28;5065667;28;45334;-71
2022/09/24 04:07:16;;;;;;;;;10.33;8.33;;;;;17.53;59.13;100651.09;5064124;28;45290;-69
2022/09/24 04:09:41;;;;;;;;;9.33;6.00;;;;;17.50;59.24;100641.19;5055109;28;46891;-70
2022/09/24 04:12:06;;;;;;;;;9.67;7.33;;;;;17.49;58.54;100645.72;5071103;28;45206;-67
2022/09/24 04:14:32;;;;;;;;;16.00;7.33;;;;;17.49;58.78;100650.22;5069238;28;45154;-68
2022/09/24 04:16:57;;;;;;;;;9.33;7.67;;;;;17.49;58.54;100645.72;5065316;28;46715;-69
2022/09/24 04:19:23;;;;;;;;;7.67;7.33;;;;;17.50;59.23;100646.59;5064587;28;45200;-70
2022/09/24 04:21:48;;;;;;;;;9.00;9.00;;;;;17.26;59.33;100609.78;5068303;28;45074;-67
2022/09/24 04:24:13;;;;;;;;;8.33;8.33;;;;;17.45;58.89;100649.31;5069448;28;45509;-66
2022/09/24 04:26:39;;;;;;;;;11.00;9.67;;;;;17.26;59.19;100620.59;5062065;28;45424;-66
2022/09/24 04:29:06;;;;;;;;;12.00;10.00;;;;;17.46;59.67;100650.22;5058867;28;65187;-66
2022/09/24 04:31:32;;;;;;;;;10.67;9.33;;;;;17.49;59.55;100647.53;5062189;28;45432;-66
2022/09/24 04:33:58;;;;;;;;;10.67;7.33;;;;;17.49;59.12;100656.50;5061115;28;45506;-72
2022/09/24 04:36:23;;;;;;;;;8.67;8.67;;;;;17.52;59.24;100654.69;5056188;28;45503;-73
2022/09/24 04:38:49;;;;;;;;;10.67;9.00;;;;;17.45;58.88;100649.31;5068786;28;45162;-69
2022/09/24 04:41:17;;;;;;;;;12.67;9.33;;;;;17.45;58.93;100654.72;5058534;28;45585;-69
2022/09/24 04:43:45;;;;;;;;;13.33;11.00;;;;;17.47;58.95;100652.00;5068517;28;45472;-68
2022/09/24 04:46:11;;;;;;;;;13.67;9.67;;;;;17.52;58.99;100646.59;5065460;28;45227;-68
2022/09/24 04:48:38;;;;;;;;;10.67;8.67;;;;;17.43;59.32;100628.63;5063618;28;46259;-65
2022/09/24 04:51:05;;;;;;;;;10.67;9.33;;;;;17.57;58.12;100647.47;5055319;28;45602;-68
2022/09/24 04:53:31;;;;;;;;;12.67;8.33;;;;;17.58;58.09;100650.16;5050931;28;45547;-72
2022/09/24 04:55:57;;;;;;;;;21.75;15.75;;;;;17.54;58.16;100643.00;5065201;28;45328;-71
2022/09/24 04:58:23;;;;;;;;;7.67;7.33;;;;;17.50;58.19;100642.13;5052700;28;47151;-71
2022/09/24 05:00:50;;;;;;;;;7.00;7.00;;;;;17.54;58.15;100658.28;5053186;28;45589;-67
2022/09/24 05:03:15;;;;;;;;;7.33;7.33;;;;;17.50;58.41;100652.00;5074753;28;45525;-72
2022/09/24 05:05:41;;;;;;;;;8.33;6.67;;;;;17.41;58.78;100642.13;5060448;28;45754;-70
2022/09/24 05:08:06;;;;;;;;;9.67;8.67;;;;;17.42;58.99;100652.06;5056842;28;45699;-69
2022/09/24 05:10:32;;;;;;;;;16.33;13.67;;;;;17.49;58.75;100655.63;5052460;28;50155;-68
2022/09/24 05:12:57;;;;;;;;;14.00;10.50;;;;;17.48;58.60;100653.81;5054677;28;45131;-68
2022/09/24 05:15:23;;;;;;;;;14.33;12.67;;;;;17.38;58.55;100644.84;5051425;28;45617;-71
2022/09/24 05:17:48;;;;;;;;;13.67;9.33;;;;;16.98;58.84;100592.75;5052095;28;64758;-71
2022/09/24 05:20:15;;;;;;;;;8.33;7.33;;;;;17.26;58.95;100651.19;5053230;28;45421;-68
2022/09/24 05:22:42;;;;;;;;;10.00;8.00;;;;;17.28;58.74;100670.97;5052308;28;45464;-69
2022/09/24 05:25:08;;;;;;;;;9.33;8.00;;;;;17.27;59.30;100666.50;5050571;28;45704;-66
2022/09/24 05:27:34;;;;;;;;;11.33;8.33;;;;;17.22;58.90;100675.50;5051092;28;46154;-66
2022/09/24 05:30:00;;;;;;;;;8.00;8.00;;;;;17.17;58.63;100670.09;5051055;28;45389;-70
2022/09/24 05:32:26;;;;;;;;;10.33;7.67;;;;;17.19;58.92;100678.19;5061118;28;45242;-71
2022/09/24 05:34:52;;;;;;;;;11.67;9.67;;;;;17.07;58.87;100658.41;5063043;28;45483;-72
2022/09/24 05:37:17;;;;;;;;;10.67;9.67;;;;;17.08;59.11;100662.91;5055051;28;46262;-69
2022/09/24 05:39:43;;;;;;;;;10.67;7.33;;;;;17.24;59.04;100679.06;5056781;28;56832;-72
2022/09/24 05:42:09;;;;;;;;;13.00;8.33;;;;;17.23;59.46;100674.59;5066514;28;45271;-66
2022/09/24 05:44:36;;;;;;;;;20.67;10.00;;;;;17.26;59.99;100680.88;5068268;28;45031;-67
2022/09/24 05:47:02;;;;;;;;;14.00;9.00;;;;;17.20;60.40;100658.41;5067801;28;45404;-71
2022/09/24 05:49:27;;;;;;;;;9.33;7.00;;;;;17.34;60.07;100677.25;5065552;28;45353;-68
2022/09/24 05:51:52;;;;;;;;;12.00;7.67;;;;;17.36;59.93;100678.19;5067473;28;56546;-69
2022/09/24 05:54:18;;;;;;;;;9.67;8.00;;;;;17.35;59.95;100673.66;5065313;28;45313;-65
2022/09/24 05:56:44;;;;;;;;;8.33;6.00;;;;;17.26;59.65;100653.00;5066634;28;45523;-70
2022/09/24 05:59:10;;;;;;;;;11.33;9.00;;;;;17.39;59.85;100680.84;5055748;28;45481;-70
2022/09/24 06:01:35;;;;;;;;;15.33;11.00;;;;;17.39;59.50;100678.13;5081190;27;45141;-72
2022/09/24 06:04:01;;;;;;;;;14.00;8.00;;;;;17.31;59.99;100661.97;5071121;28;45838;-73
2022/09/24 06:06:27;;;;;;;;;13.00;9.33;;;;;17.44;60.44;100682.66;5072735;28;45677;-72
2022/09/24 06:08:53;;;;;;;;;16.33;11.00;;;;;17.48;59.65;100681.72;5071779;28;45457;-71
2022/09/24 06:11:20;;;;;;;;;10.33;9.33;;;;;17.37;59.85;100671.84;5057158;28;45674;-72
2022/09/24 06:13:46;;;;;;;;;13.67;9.00;;;;;17.49;59.56;100688.94;5062222;28;45614;-72
2022/09/24 06:16:11;;;;;;;;;12.33;9.33;;;;;17.50;59.19;100692.53;5052653;28;46090;-73
2022/09/24 06:18:39;;;;;;;;;13.67;10.00;;;;;17.44;59.31;100693.44;5057391;28;45844;-73
2022/09/24 06:21:07;;;;;;;;;12.00;9.67;;;;;17.06;59.15;100618.84;5070989;28;45183;-73
2022/09/24 06:23:33;;;;;;;;;15.00;10.67;;;;;17.48;60.03;100697.91;5062508;28;45642;-73
2022/09/24 06:25:59;;;;;;;;;16.67;9.00;;;;;17.32;59.77;100671.84;5088273;28;47598;-71
2022/09/24 06:28:24;;;;;;;;;10.00;10.00;;;;;17.48;59.99;100702.44;5068595;28;45389;-72
2022/09/24 06:30:50;;;;;;;;;9.33;8.33;;;;;17.47;59.96;100695.22;5067900;28;45242;-73
2022/09/24 06:33:16;;;;;;;;;9.00;8.33;;;;;17.38;60.77;100674.56;5072551;28;45115;-72
2022/09/24 06:35:43;;;;;;;;;9.67;9.67;;;;;17.52;60.72;100706.91;5073703;28;45492;-74
2022/09/24 06:38:13;;;;;;;;;12.67;8.33;;;;;17.54;60.81;100707.81;5073538;28;45007;-72
2022/09/24 06:40:40;;;;;;;;;15.00;10.00;;;;;17.53;60.30;100708.72;5085708;27;45632;-75
2022/09/24 06:43:06;;;;;;;;;11.33;10.00;;;;;17.39;60.07;100702.44;5074693;28;44962;-72
2022/09/24 06:45:31;;;;;;;;;10.33;8.33;;;;;17.48;59.88;100714.13;5071096;28;45220;-73
2022/09/24 06:47:58;;;;;;;;;11.67;10.33;;;;;17.54;59.98;100712.31;5074029;28;45043;-73
2022/09/24 06:50:26;;;;;;;;;12.00;10.67;;;;;17.44;60.30;100717.75;5074053;28;45163;-72
2022/09/24 06:52:52;;;;;;;;;11.33;11.00;;;;;17.47;60.37;100717.75;5074016;28;45031;-70
2022/09/24 06:55:18;;;;;;;;;9.33;9.33;;;;;17.47;59.99;100717.75;5073585;28;45274;-69
2022/09/24 06:57:44;;;;;;;;;10.00;8.67;;;;;17.45;60.01;100714.13;5073884;28;44969;-71
2022/09/24 07:00:11;;;;;;;;;10.67;9.33;;;;;17.54;59.87;100715.00;5074396;28;45097;-72
2022/09/24 07:02:37;;;;;;;;;9.00;8.67;;;;;17.49;59.69;100721.34;5069243;28;45816;-69
2022/09/24 07:05:02;;;;;;;;;9.00;7.33;;;;;17.35;59.94;100698.84;5073578;28;45650;-69
2022/09/24 07:07:28;;;;;;;;;8.67;6.67;;;;;17.54;59.75;100724.03;5073296;28;45429;-74
2022/09/24 07:09:53;;;;;;;;;12.33;8.33;;;;;17.49;59.65;100715.94;5073758;28;45025;-73
2022/09/24 07:12:19;;;;;;;;;13.67;10.67;;;;;17.36;59.80;100691.69;5073638;28;45185;-73
2022/09/24 07:14:44;;;;;;;;;11.67;10.33;;;;;17.61;60.17;100722.22;5071720;28;56470;-74
2022/09/24 07:17:09;;;;;;;;;12.00;8.67;;;;;17.62;60.16;100729.41;5070353;28;49727;-74
2022/09/24 07:19:35;;;;;;;;;8.67;8.33;;;;;17.59;60.31;100729.44;5065413;28;51762;-69
2022/09/24 07:22:00;;;;;;;;;9.00;7.33;;;;;17.59;60.66;100732.13;5055165;28;49116;-71
2022/09/24 07:24:25;;;;;;;;;10.67;10.00;;;;;17.57;60.61;100718.63;5057407;28;46771;-71
2022/09/24 07:26:51;;;;;;;;;8.00;8.00;;;;;17.61;61.12;100727.63;5068505;28;53450;-72
2022/09/24 07:29:16;;;;;;;;;9.33;9.33;;;;;17.56;61.16;100719.53;5071397;28;44996;-74
2022/09/24 07:31:41;;;;;;;;;11.25;9.00;;;;;17.56;61.04;100732.13;5060618;28;45298;-73
2022/09/24 07:34:10;;;;;;;;;11.33;10.33;;;;;17.54;61.03;100737.53;5057120;28;46082;-74
2022/09/24 07:36:35;;;;;;;;;11.00;9.67;;;;;17.58;60.64;100742.03;5063161;28;45427;-74
2022/09/24 07:39:01;;;;;;;;;11.33;9.33;;;;;17.60;61.84;100736.63;5055366;28;51535;-72
2022/09/24 07:41:26;;;;;;;;;19.25;16.00;;;;;17.64;61.42;100739.31;5056181;28;45415;-68
2022/09/24 07:43:54;;;;;;;;;10.00;10.00;;;;;17.50;60.75;100716.81;5067870;28;45379;-74
2022/09/24 07:46:20;;;;;;;;;5.33;5.33;;;;;17.64;61.22;100743.81;5072603;28;45465;-70
2022/09/24 07:48:47;;;;;;;;;13.33;8.67;;;;;17.64;61.29;100750.13;5067059;28;45611;-70
2022/09/24 07:51:12;;;;;;;;;8.67;8.67;;;;;17.63;60.61;100752.81;5069505;28;45493;-72
2022/09/24 07:53:37;;;;;;;;;18.33;13.00;;;;;17.71;60.78;100744.72;5066354;28;46081;-72
2022/09/24 07:56:03;;;;;;;;;19.25;16.50;;;;;17.64;60.93;100733.03;5079668;27;45378;-72
2022/09/24 07:58:29;;;;;;;;;12.33;10.33;;;;;17.71;60.36;100758.22;5064916;28;45333;-67
2022/09/24 08:00:59;;;;;;;;;15.33;9.33;;;;;17.65;59.82;100762.72;5064501;28;45386;-73
2022/09/24 08:03:25;;;;;;;;;11.33;10.00;;;;;17.69;60.78;100760.91;5068054;28;45533;-71
2022/09/24 08:05:55;;;;;;;;;11.00;10.00;;;;;17.69;59.56;100763.63;5074936;28;45294;-73
2022/09/24 08:08:20;;;;;;;;;14.00;8.33;;;;;17.67;59.82;100757.34;5073059;28;45243;-72
2022/09/24 08:10:46;;;;;;;;;5.33;5.33;;;;;17.63;59.65;100760.94;5072382;28;45162;-73
2022/09/24 08:13:11;;;;;;;;;11.33;10.33;;;;;17.61;59.90;100762.75;5071686;28;69065;-68
2022/09/24 08:15:37;;;;;;;;;7.33;7.33;;;;;17.66;60.03;100767.22;5070143;28;45369;-70
2022/09/24 08:18:03;;;;;;;;;9.67;7.33;;;;;17.65;60.16;100760.03;5073240;28;45372;-72
2022/09/24 08:20:30;;;;;;;;;8.33;8.00;;;;;17.54;60.64;100739.31;5073264;28;45129;-69
2022/09/24 08:23:01;;;;;;;;;9.00;7.33;;;;;17.66;60.37;100761.81;5068893;28;45496;-73
2022/09/24 08:25:26;;;;;;;;;9.33;7.33;;;;;17.59;60.72;100754.63;5064580;28;45483;-74
2022/09/24 08:27:51;;;;;;;;;16.00;9.67;;;;;17.59;61.08;100748.34;5066148;28;46020;-70
2022/09/24 08:30:16;;;;;;;;;16.67;11.00;;;;;17.64;60.49;100758.22;5057152;28;45645;-73
2022/09/24 08:32:47;;;;;;;;;10.33;9.33;;;;;17.72;60.98;100776.19;5057062;28;45980;-70
2022/09/24 08:35:14;;;;;;;;;8.00;8.00;;;;;17.74;61.30;100774.44;5061826;28;45325;-73
2022/09/24 08:37:40;;;;;;;;;14.00;11.33;;;;;17.77;61.03;100780.72;5061788;28;45480;-69
2022/09/24 08:40:13;;;;;;;;;12.75;10.75;;;;;17.73;61.23;100757.28;5054181;27;45511;-74
2022/09/24 08:43:06;;;;;;;;;11.33;10.67;;;;;17.82;61.57;100769.91;5057249;28;45488;-73
2022/09/24 08:48:31;;;;;;;;;21.00;14.00;;;;;17.94;60.85;100769.88;5055448;28;45651;-68
2022/09/24 08:51:02;;;;;;;;;11.67;9.67;;;;;17.94;60.40;100766.28;5064096;28;46241;-74
2022/09/24 08:53:54;;;;;;;;;14.67;11.00;;;;;17.89;60.71;100765.41;5058273;28;45706;-71
2022/09/24 08:56:25;;;;;;;;;9.67;8.00;;;;;17.96;60.07;100786.97;5054663;28;45583;-75
2022/09/24 08:59:25;;;;;;;;;10.33;8.67;;;;;18.04;60.08;100781.56;5067463;28;45291;-73
2022/09/24 09:02:01;;;;;;;;;15.67;10.33;;;;;18.01;60.71;100784.25;5064958;28;45175;-71
2022/09/24 09:04:53;;;;;;;;;16.00;16.00;;;;;17.97;60.87;100779.78;5082781;28;46695;-72
2022/09/24 09:07:39;;;;;;;;;11.33;9.33;;;;;17.93;60.65;100788.78;5066241;28;45166;-72
2022/09/24 09:10:25;;;;;;;;;11.67;11.67;;;;;17.85;61.06;100761.75;5056925;28;45419;-75
2022/09/24 09:13:10;;;;;;;;;11.67;10.33;;;;;17.75;61.19;100760.91;5052179;28;45433;-69
2022/09/24 09:15:41;;;;;;;;;9.67;8.00;;;;;17.91;61.86;100802.31;5056748;28;46502;-75
2022/09/24 09:18:20;;;;;;;;;10.67;8.00;;;;;17.88;61.30;100796.91;5072196;27;45460;-75
2022/09/24 09:20:48;;;;;;;;;16.33;11.67;;;;;17.82;60.94;100795.09;5052876;28;45579;-75
2022/09/24 09:23:16;;;;;;;;;14.00;8.33;;;;;17.84;61.20;100793.28;5053271;28;45287;-71
2022/09/24 09:25:51;;;;;;;;;10.67;8.67;;;;;17.83;61.48;100794.19;5068898;28;48315;-73
2022/09/24 09:28:18;;;;;;;;;19.00;16.00;;;;;17.83;61.55;100790.59;5049434;28;45706;-75
2022/09/24 09:30:55;;;;;;;;;18.00;16.00;;;;;17.86;61.55;100798.69;5048181;28;46749;-75
2022/09/24 09:34:00;;;;;;;;;14.67;12.67;;;;;17.83;61.40;100796.00;5053211;28;45362;-74
2022/09/24 09:37:02;;;;;;;;;12.67;10.33;;;;;17.84;61.36;100792.41;5053000;28;45366;-69
2022/09/24 09:39:46;;;;;;;;;13.67;11.33;;;;;17.92;61.56;100798.72;5051089;28;45190;-71
2022/09/24 09:42:39;;;;;;;;;16.50;14.75;;;;;17.98;61.44;100786.97;5083366;28;45048;-70
2022/09/24 09:45:29;;;;;;;;;16.33;10.33;;;;;18.01;61.05;100790.56;5070948;28;45216;-69
2022/09/24 09:47:56;;;;;;;;;17.67;13.00;;;;;17.99;61.15;100791.50;5063502;28;45639;-69
2022/09/24 09:50:52;;;;;;;;;15.00;11.67;;;;;17.93;62.09;100803.19;5059452;28;45327;-68
2022/09/24 09:53:25;;;;;;;;;11.67;11.67;;;;;17.95;61.37;100800.50;5055858;28;45260;-70
2022/09/24 09:55:54;;;;;;;;;16.67;15.00;;;;;17.91;61.55;100793.31;5064487;28;45425;-69
2022/09/24 09:58:25;;;;;;;;;17.00;13.33;;;;;17.33;61.51;100706.06;5052981;28;45462;-69
2022/09/24 10:00:52;;;;;;;;;21.00;17.00;;;;;17.88;61.49;100794.22;5056150;28;45540;-69
2022/09/24 10:03:27;;;;;;;;;21.67;16.33;;;;;17.82;61.68;100789.72;5057997;28;45606;-68
2022/09/24 10:05:59;;;;;;;;;19.00;16.67;;;;;17.90;61.25;100794.22;5060492;28;45127;-68
2022/09/24 10:08:25;;;;;;;;;33.25;25.25;;;;;17.86;61.81;100771.66;5060910;28;45841;-67
2022/09/24 10:10:56;;;;;;;;;23.50;19.50;;;;;18.06;60.78;100793.25;5055476;28;45298;-66
2022/09/24 10:13:22;;;;;;;;;17.00;16.00;;;;;18.08;61.57;100794.13;5059418;28;45645;-68
2022/09/24 10:16:04;;;;;;;;;23.67;16.67;;;;;18.05;60.94;100795.06;5065667;28;45415;-68
2022/09/24 10:18:41;;;;;;;;;14.00;11.67;;;;;17.97;61.38;100796.91;5060631;28;46802;-68
2022/09/24 10:21:13;;;;;;;;;19.33;17.67;;;;;17.80;61.42;100768.97;5068510;28;45640;-69
2022/09/24 10:23:41;;;;;;;;;16.00;16.00;;;;;17.98;61.83;100797.78;5072243;28;44929;-68
2022/09/24 10:26:08;;;;;;;;;13.67;13.67;;;;;18.02;61.05;100795.06;5057160;28;45496;-69
2022/09/24 10:31:28;;;;;;;;;18.00;18.00;;;;;18.04;60.45;100778.84;5061208;28;45425;-72
2022/09/24 10:33:56;;;;;;;;;18.33;17.33;;;;;18.18;59.66;100793.22;5053801;28;45689;-70
2022/09/24 10:36:23;;;;;;;;;23.25;18.50;;;;;17.77;59.78;100726.66;5049608;28;45481;-68
2022/09/24 10:38:49;;;;;;;;;26.00;23.00;;;;;18.02;60.23;100750.94;5056882;28;46287;-73
2022/09/24 10:41:30;;;;;;;;;24.00;19.50;;;;;18.19;60.08;100758.97;5053666;28;45504;-74
2022/09/24 10:44:01;;;;;;;;;20.67;17.33;;;;;18.47;60.15;100785.88;5053757;28;45549;-71
2022/09/24 10:46:41;;;;;;;;;12.33;12.33;;;;;18.48;59.50;100788.56;5057278;28;45503;-70
2022/09/24 10:49:16;;;;;;;;;16.00;15.00;;;;;18.31;59.60;100749.88;5051997;28;45783;-70
2022/09/24 10:52:19;;;;;;;;;17.67;12.67;;;;;18.60;59.16;100790.28;5057535;28;45254;-67
2022/09/24 10:54:55;;;;;;;;;26.50;17.50;;;;;18.71;58.90;100787.50;5065711;28;45853;-73
2022/09/24 10:57:38;;;;;;;;;33.75;28.00;;;;;18.67;58.85;100764.97;5047876;28;45838;-72
2022/09/24 11:00:14;;;;;;;;;22.00;21.25;;;;;18.90;57.93;100786.50;5048491;28;47491;-75
2022/09/24 11:03:05;;;;;;;;;18.00;16.50;;;;;19.00;57.99;100783.75;5063535;28;45037;-70
2022/09/24 11:05:46;;;;;;;;;21.50;18.00;;;;;19.17;57.37;100787.19;5063068;28;45240;-65
2022/09/24 11:08:43;;;;;;;;;18.33;18.00;;;;;19.22;56.65;100779.03;5052083;28;45732;-68
2022/09/24 11:11:27;;;;;;;;;23.00;18.67;;;;;19.06;56.85;100765.63;5044620;28;45426;-69
2022/09/24 11:14:23;;;;;;;;;21.25;18.75;;;;;18.79;56.29;100718.91;5042911;28;45491;-68
2022/09/24 11:17:25;;;;;;;;;27.25;20.00;;;;;19.17;56.35;100792.63;5043651;28;46008;-70
2022/09/24 11:20:24;;;;;;;;;21.33;19.33;;;;;19.13;55.83;100790.84;5047486;28;45572;-68
2022/09/24 11:23:11;;;;;;;;;19.00;19.00;;;;;19.20;55.37;100787.19;5040910;28;46280;-68
2022/09/24 11:25:42;;;;;;;;;22.67;18.00;;;;;19.24;56.12;100794.38;5038416;28;45966;-64
2022/09/24 11:28:30;;;;;;;;;17.00;14.50;;;;;19.24;55.39;100788.97;5038992;28;45617;-68
2022/09/24 11:31:24;;;;;;;;;21.25;17.50;;;;;19.02;55.38;100768.38;5041201;28;45783;-74
2022/09/24 11:34:01;;;;;;;;;24.33;19.67;;;;;19.13;55.46;100786.31;5043587;28;46577;-73
2022/09/24 11:36:40;;;;;;;;;20.50;20.50;;;;;19.13;55.55;100785.44;5045675;28;45470;-67
2022/09/24 11:39:34;;;;;;;;;25.50;22.00;;;;;19.20;55.25;100789.88;5046756;28;45666;-70
2022/09/24 11:42:21;;;;;;;;;19.25;19.00;;;;;19.25;55.67;100782.59;5046529;28;45672;-73
2022/09/24 11:44:53;;;;;;;;;23.00;19.25;;;;;19.35;55.48;100780.72;5050265;28;46230;-73